createdAt,value
2018-12-13T00:00:14.211Z,100245.72
2018-12-13T00:02:43.325Z,100242.48
2018-12-13T00:05:12.417Z,100245.73
2018-12-13T00:07:41.543Z,100243.20
2018-12-13T00:10:10.645Z,100245.26
2018-12-13T00:12:39.743Z,100252.73
2018-12-13T00:15:08.824Z,100255.02
2018-12-13T00:17:37.941Z,100252.75
2018-12-13T00:20:07.163Z,100255.52
2018-12-13T00:22:36.279Z,100254.93
2018-12-13T00:25:05.338Z,100260.61
2018-12-13T00:27:34.414Z,100266.28
2018-12-13T00:30:03.521Z,100264.72
2018-12-13T00:32:32.608Z,100263.97
2018-12-13T00:35:01.695Z,100268.33
2018-12-13T00:37:30.800Z,100271.94
2018-12-13T00:39:59.905Z,100269.15
2018-12-13T00:42:29.000Z,100268.78
2018-12-13T00:44:58.086Z,100273.61
2018-12-13T00:47:27.198Z,100272.30
2018-12-13T00:49:56.292Z,100272.44
2018-12-13T00:52:25.388Z,100267.23
2018-12-13T00:54:54.484Z,100269.53
2018-12-13T00:57:23.563Z,100269.08
2018-12-13T00:59:52.665Z,100265.92
2018-12-13T01:02:21.762Z,100270.14
2018-12-13T01:04:50.843Z,100267.84
2018-12-13T01:07:19.948Z,100271.81
2018-12-13T01:09:49.063Z,100271.93
2018-12-13T01:12:18.180Z,100264.45
2018-12-13T01:14:47.277Z,100267.20
2018-12-13T01:17:16.377Z,100267.57
2018-12-13T01:19:45.474Z,100269.99
2018-12-13T01:22:14.566Z,100267.09
2018-12-13T01:24:43.654Z,100271.81
2018-12-13T01:27:12.751Z,100270.83
2018-12-13T01:29:41.848Z,100258.98
2018-12-13T01:32:10.928Z,100263.79
2018-12-13T01:34:40.043Z,100263.58
2018-12-13T01:37:09.146Z,100263.21
2018-12-13T01:39:38.304Z,100254.39
2018-12-13T01:42:07.447Z,100263.70
2018-12-13T01:44:36.533Z,100263.81
2018-12-13T01:47:05.680Z,100264.63
2018-12-13T01:49:34.759Z,100265.00
2018-12-13T01:52:03.865Z,100271.06
2018-12-13T01:54:32.972Z,100273.48
2018-12-13T01:57:02.076Z,100269.76
2018-12-13T01:59:31.160Z,100274.80
2018-12-13T02:02:00.252Z,100272.14
2018-12-13T02:04:29.347Z,100272.99
2018-12-13T02:06:58.897Z,100275.30
2018-12-13T02:09:28.088Z,100274.70
2018-12-13T02:11:57.218Z,100272.31
2018-12-13T02:14:26.321Z,100277.61
2018-12-13T02:16:55.437Z,100275.81
2018-12-13T02:19:24.534Z,100274.61
2018-12-13T02:21:53.655Z,100275.81
2018-12-13T02:24:22.768Z,100275.94
2018-12-13T02:26:51.868Z,100271.34
2018-12-13T02:29:20.933Z,100277.14
2018-12-13T02:31:50.020Z,100276.54
2018-12-13T02:34:19.090Z,100278.73
2018-12-13T02:36:48.200Z,100275.23
2018-12-13T02:39:17.306Z,100280.17
2018-12-13T02:41:46.427Z,100281.63
2018-12-13T02:44:15.514Z,100283.33
2018-12-13T02:46:44.597Z,100290.19
2018-12-13T02:49:13.705Z,100284.52
2018-12-13T02:51:42.829Z,100284.03
2018-12-13T02:54:11.917Z,100284.03
2018-12-13T02:56:41.030Z,100290.30
2018-12-13T02:59:10.089Z,100286.44
2018-12-13T03:01:39.259Z,100287.78
2018-12-13T03:04:08.345Z,100281.14
2018-12-13T03:06:37.464Z,100287.55
2018-12-13T03:09:08.198Z,100282.83
2018-12-13T03:11:37.277Z,100282.09
2018-12-13T03:14:06.369Z,100276.91
2018-12-13T03:16:35.487Z,100276.53
2018-12-13T03:19:04.582Z,100278.20
2018-12-13T03:21:33.672Z,100280.73
2018-12-13T03:24:02.776Z,100273.58
2018-12-13T03:26:31.859Z,100277.89
2018-12-13T03:29:01.020Z,100269.16
2018-12-13T03:31:30.213Z,100274.30
2018-12-13T03:33:59.328Z,100281.78
2018-12-13T03:36:28.430Z,100270.05
2018-12-13T03:38:57.561Z,100273.97
2018-12-13T03:41:26.685Z,100274.28
2018-12-13T03:43:55.784Z,100272.22
2018-12-13T03:46:24.879Z,100273.64
2018-12-13T03:48:53.996Z,100271.56
2018-12-13T03:51:23.114Z,100272.30
2018-12-13T03:53:52.324Z,100270.83
2018-12-13T03:56:21.532Z,100269.95
2018-12-13T03:58:50.632Z,100275.61
2018-12-13T04:01:19.712Z,100274.81
2018-12-13T04:03:48.798Z,100279.81
2018-12-13T04:06:18.048Z,100277.17
2018-12-13T04:08:47.264Z,100279.31
2018-12-13T04:11:16.339Z,100280.40
2018-12-13T04:13:45.487Z,100273.75
2018-12-13T04:16:14.675Z,100276.58
2018-12-13T04:18:43.761Z,100281.13
2018-12-13T04:21:12.864Z,100286.64
2018-12-13T04:23:41.969Z,100283.85
2018-12-13T04:26:11.016Z,100290.65
2018-12-13T04:28:40.113Z,100294.14
2018-12-13T04:31:09.215Z,100290.38
2018-12-13T04:33:38.381Z,100296.22
2018-12-13T04:36:07.511Z,100302.29
2018-12-13T04:38:36.601Z,100297.33
2018-12-13T04:41:05.693Z,100302.45
2018-12-13T04:43:34.808Z,100302.78
2018-12-13T04:46:03.950Z,100303.63
2018-12-13T04:48:33.035Z,100303.19
2018-12-13T04:51:02.133Z,100300.81
2018-12-13T04:53:31.356Z,100299.22
2018-12-13T04:56:00.433Z,100303.20
2018-12-13T04:58:29.536Z,100304.05
2018-12-13T05:00:58.633Z,100301.92
2018-12-13T05:03:27.731Z,100303.02
2018-12-13T05:05:56.825Z,100307.22
2018-12-13T05:08:25.922Z,100310.91
2018-12-13T05:10:55.660Z,100310.81
2018-12-13T05:13:24.775Z,100308.17
2018-12-13T05:15:53.846Z,100307.56
2018-12-13T05:18:22.937Z,100312.33
2018-12-13T05:20:52.016Z,100310.59
2018-12-13T05:23:21.125Z,100313.24
2018-12-13T05:25:50.245Z,100317.16
2018-12-13T05:28:19.358Z,100309.56
2018-12-13T05:30:48.451Z,100313.84
2018-12-13T05:33:17.559Z,100315.08
2018-12-13T05:35:46.673Z,100315.11
2018-12-13T05:38:15.840Z,100315.63
2018-12-13T05:40:44.994Z,100322.89
2018-12-13T05:43:14.120Z,100324.53
2018-12-13T05:45:43.256Z,100334.34
2018-12-13T05:48:12.369Z,100330.94
2018-12-13T05:50:41.495Z,100328.48
2018-12-13T05:53:10.618Z,100330.78
2018-12-13T05:55:39.721Z,100330.09
2018-12-13T05:58:08.817Z,100329.81
2018-12-13T06:00:37.997Z,100329.62
2018-12-13T06:03:07.117Z,100334.03
2018-12-13T06:05:36.206Z,100333.34
2018-12-13T06:08:05.305Z,100328.05
2018-12-13T06:10:34.410Z,100334.77
2018-12-13T06:13:03.509Z,100334.48
2018-12-13T06:15:32.609Z,100346.91
2018-12-13T06:18:06.830Z,100345.44
2018-12-13T06:20:32.812Z,100345.98
2018-12-13T06:23:01.919Z,100350.77
2018-12-13T06:25:31.016Z,100346.66
2018-12-13T06:28:00.110Z,100344.87
2018-12-13T06:30:29.192Z,100349.00
2018-12-13T06:32:58.294Z,100343.39
2018-12-13T06:35:27.365Z,100344.00
2018-12-13T06:38:01.275Z,100340.64
2018-12-13T06:40:27.568Z,100352.11
2018-12-13T06:42:56.699Z,100345.65
2018-12-13T06:45:25.787Z,100353.73
2018-12-13T06:47:54.902Z,100354.50
2018-12-13T06:50:24.021Z,100350.58
2018-12-13T06:52:53.110Z,100356.75
2018-12-13T06:55:22.198Z,100358.25
2018-12-13T06:57:51.317Z,100353.97
2018-12-13T07:00:20.402Z,100357.27
2018-12-13T07:02:49.512Z,100355.25
2018-12-13T07:05:18.613Z,100360.74
2018-12-13T07:07:47.715Z,100354.89
2018-12-13T07:10:16.857Z,100355.20
2018-12-13T07:12:45.936Z,100351.52
2018-12-13T07:15:15.058Z,100355.63
2018-12-13T07:17:44.146Z,100353.59
2018-12-13T07:20:13.278Z,100354.94
2018-12-13T07:22:42.386Z,100352.77
2018-12-13T07:25:11.504Z,100353.09
2018-12-13T07:27:40.594Z,100354.64
2018-12-13T07:30:10.157Z,100353.80
2018-12-13T07:32:39.269Z,100354.50
2018-12-13T07:35:08.356Z,100356.74
2018-12-13T07:37:37.466Z,100353.20
2018-12-13T07:40:07.804Z,100356.88
2018-12-13T07:42:36.931Z,100362.12
2018-12-13T07:45:06.124Z,100359.77
2018-12-13T07:47:35.253Z,100359.30
2018-12-13T07:50:04.404Z,100367.09
2018-12-13T07:52:33.516Z,100364.06
2018-12-13T07:55:02.589Z,100361.98
2018-12-13T07:57:31.710Z,100363.44
2018-12-13T08:00:00.877Z,100362.41
2018-12-13T08:02:29.963Z,100357.41
2018-12-13T08:04:59.090Z,100371.34
2018-12-13T08:07:28.200Z,100363.59
2018-12-13T08:09:57.305Z,100360.62
2018-12-13T08:12:26.475Z,100355.73
2018-12-13T08:14:55.582Z,100355.28
2018-12-13T08:17:24.820Z,100353.94
2018-12-13T08:19:53.941Z,100351.41
2018-12-13T08:22:23.007Z,100356.63
2018-12-13T08:24:52.102Z,100349.58
2018-12-13T08:27:21.210Z,100351.36
2018-12-13T08:29:50.285Z,100351.33
2018-12-13T08:32:19.341Z,100336.73
2018-12-13T08:34:48.530Z,100333.17
2018-12-13T08:37:17.625Z,100331.75
2018-12-13T08:39:46.698Z,100333.20
2018-12-13T08:42:15.791Z,100334.00
2018-12-13T08:44:44.873Z,100329.94
2018-12-13T08:47:13.962Z,100325.38
2018-12-13T08:49:43.050Z,100324.36
2018-12-13T08:52:12.162Z,100319.52
2018-12-13T08:55:12.138Z,100322.71
2018-12-13T08:57:41.206Z,100313.59
2018-12-13T09:00:10.276Z,100309.09
2018-12-13T09:02:39.341Z,100306.09
2018-12-13T09:05:08.459Z,100300.25
2018-12-13T09:07:37.521Z,100299.89
2018-12-13T09:10:07.403Z,100300.78
2018-12-13T09:12:36.472Z,100291.50
2018-12-13T09:15:05.686Z,100293.36
2018-12-13T09:17:34.746Z,100282.98
2018-12-13T09:20:03.824Z,100280.94
2018-12-13T09:22:32.891Z,100276.66
2018-12-13T09:25:01.969Z,100275.39
2018-12-13T09:27:31.032Z,100271.67
2018-12-13T09:30:00.104Z,100267.98
2018-12-13T09:32:29.157Z,100267.03
2018-12-13T09:34:58.221Z,100271.64
2018-12-13T09:37:27.298Z,100265.74
2018-12-13T09:39:56.368Z,100264.34
2018-12-13T09:42:25.440Z,100263.94
2018-12-13T09:44:54.512Z,100260.25
2018-12-13T09:47:23.590Z,100261.20
2018-12-13T09:49:52.662Z,100261.36
2018-12-13T09:52:21.742Z,100259.16
2018-12-13T09:54:50.797Z,100259.03
2018-12-13T09:57:19.878Z,100255.81
2018-12-13T09:59:48.964Z,100251.44
2018-12-13T10:02:18.946Z,100246.38
2018-12-13T10:04:48.021Z,100248.54
2018-12-13T10:07:17.091Z,100243.20
2018-12-13T10:09:46.178Z,100245.13
2018-12-13T10:12:15.254Z,100244.31
2018-12-13T10:14:44.334Z,100232.80
2018-12-13T10:17:14.880Z,100243.57
2018-12-13T10:19:44.218Z,100242.52
2018-12-13T10:22:13.278Z,100237.73
2018-12-13T10:24:42.348Z,100234.64
2018-12-13T10:27:11.420Z,100234.87
2018-12-13T10:29:40.502Z,100232.31
2018-12-13T10:32:09.595Z,100230.05
2018-12-13T10:34:38.668Z,100228.05
2018-12-13T10:37:07.792Z,100228.05
2018-12-13T10:39:36.886Z,100225.34
2018-12-13T10:42:05.954Z,100223.29
2018-12-13T10:44:35.497Z,100226.41
2018-12-13T10:47:06.129Z,100224.42
2018-12-13T10:49:35.190Z,100222.34
2018-12-13T10:52:04.271Z,100219.84
2018-12-13T10:54:33.369Z,100223.23
2018-12-13T10:57:02.453Z,100225.59
2018-12-13T10:59:31.521Z,100216.20
2018-12-13T11:02:05.017Z,100221.00
2018-12-13T11:04:34.083Z,100217.05
2018-12-13T11:07:03.165Z,100207.86
2018-12-13T11:09:32.272Z,100209.79
2018-12-13T11:12:01.334Z,100208.68
2018-12-13T11:14:30.444Z,100199.83
2018-12-13T11:16:59.536Z,100202.31
2018-12-13T11:19:28.620Z,100206.80
2018-12-13T11:21:57.722Z,100205.22
2018-12-13T11:24:26.797Z,100200.77
2018-12-13T11:26:57.078Z,100193.48
2018-12-13T11:29:36.941Z,100197.39
2018-12-13T11:32:06.028Z,100194.95
2018-12-13T11:34:35.088Z,100181.70
2018-12-13T11:37:04.177Z,100180.07
2018-12-13T11:39:33.250Z,100173.36
2018-12-13T11:42:02.329Z,100177.75
2018-12-13T11:44:31.404Z,100169.34
2018-12-13T11:47:00.468Z,100174.47
2018-12-13T11:49:29.607Z,100170.31
2018-12-13T11:51:58.702Z,100164.98
2018-12-13T11:54:48.293Z,100166.02
2018-12-13T11:57:17.361Z,100163.11
2018-12-13T11:59:46.433Z,100161.29
2018-12-13T12:02:15.495Z,100167.80
2018-12-13T12:04:44.547Z,100166.43
2018-12-13T12:07:13.626Z,100164.16
2018-12-13T12:09:42.685Z,100163.02
2018-12-13T12:12:11.825Z,100156.42
2018-12-13T12:14:40.877Z,100161.61
2018-12-13T12:17:10.028Z,100157.78
2018-12-13T12:19:39.105Z,100165.59
2018-12-13T12:22:08.211Z,100156.44
2018-12-13T12:24:37.275Z,100160.51
2018-12-13T12:27:06.392Z,100162.80
2018-12-13T12:29:35.478Z,100155.85
2018-12-13T12:32:04.623Z,100157.33
2018-12-13T12:34:33.697Z,100156.11
2018-12-13T12:37:02.795Z,100160.52
2018-12-13T12:39:31.873Z,100163.94
2018-12-13T12:42:02.052Z,100163.03
2018-12-13T12:44:35.154Z,100167.00
2018-12-13T12:47:04.225Z,100171.93
2018-12-13T12:49:33.309Z,100165.84
2018-12-13T12:52:02.381Z,100171.75
2018-12-13T12:54:31.477Z,100173.69
2018-12-13T12:57:00.544Z,100169.84
2018-12-13T12:59:29.711Z,100167.91
2018-12-13T13:01:58.796Z,100175.66
2018-12-13T13:04:27.874Z,100172.63
2018-12-13T13:06:56.969Z,100169.53
2018-12-13T13:09:26.064Z,100169.53
2018-12-13T13:11:55.174Z,100172.65
2018-12-13T13:14:24.247Z,100163.45
2018-12-13T13:16:53.586Z,100168.39
2018-12-13T13:19:22.677Z,100174.36
2018-12-13T13:21:51.800Z,100175.61
2018-12-13T13:24:20.897Z,100171.97
2018-12-13T13:26:50.033Z,100176.06
2018-12-13T13:29:19.121Z,100182.73
2018-12-13T13:31:48.207Z,100174.51
2018-12-13T13:34:17.298Z,100177.06
2018-12-13T13:36:46.409Z,100190.08
2018-12-13T13:39:15.614Z,100192.88
2018-12-13T13:41:44.717Z,100195.19
2018-12-13T13:44:14.105Z,100189.97
2018-12-13T13:46:43.245Z,100190.41
2018-12-13T13:49:12.327Z,100188.84
2018-12-13T13:51:41.487Z,100189.11
2018-12-13T13:54:10.665Z,100187.42
2018-12-13T13:56:45.830Z,100190.39
2018-12-13T13:59:14.921Z,100193.88
2018-12-13T14:01:44.007Z,100187.61
2018-12-13T14:04:13.096Z,100195.94
2018-12-13T14:06:42.212Z,100198.87
2018-12-13T14:09:11.339Z,100193.95
2018-12-13T14:11:40.516Z,100199.33
2018-12-13T14:14:09.641Z,100197.83
2018-12-13T14:16:38.750Z,100200.94
2018-12-13T14:19:07.965Z,100201.61
2018-12-13T14:21:37.077Z,100204.59
2018-12-13T14:24:06.169Z,100203.69
2018-12-13T14:26:35.268Z,100201.47
2018-12-13T14:29:04.368Z,100193.05
2018-12-13T14:31:34.631Z,100202.67
2018-12-13T14:34:04.003Z,100198.61
2018-12-13T14:36:33.102Z,100194.44
2018-12-13T14:39:02.185Z,100195.33
2018-12-13T14:41:31.575Z,100196.91
2018-12-13T14:44:00.653Z,100197.69
2018-12-13T14:46:29.784Z,100199.70
2018-12-13T14:48:58.853Z,100201.78
2018-12-13T14:51:27.946Z,100204.95
2018-12-13T14:53:57.044Z,100201.00
2018-12-13T14:56:26.122Z,100203.55
2018-12-13T14:58:55.180Z,100207.23
2018-12-13T15:01:24.258Z,100212.30
2018-12-13T15:03:53.348Z,100219.20
2018-12-13T15:06:22.461Z,100215.34
2018-12-13T15:08:51.569Z,100216.53
2018-12-13T15:11:20.669Z,100218.58
2018-12-13T15:13:49.823Z,100210.48
2018-12-13T15:16:18.930Z,100222.06
2018-12-13T15:18:48.024Z,100219.85
2018-12-13T15:21:17.104Z,100219.01
2018-12-13T15:23:46.185Z,100215.03
2018-12-13T15:26:15.256Z,100216.95
2018-12-13T15:28:44.393Z,100216.54
2018-12-13T15:31:13.624Z,100225.88
2018-12-13T15:33:42.721Z,100229.70
2018-12-13T15:36:11.800Z,100220.20
2018-12-13T15:38:40.891Z,100218.83
2018-12-13T15:41:09.976Z,100220.03
2018-12-13T15:43:39.061Z,100222.90
2018-12-13T15:46:08.142Z,100222.52
2018-12-13T15:48:37.269Z,100221.97
2018-12-13T15:51:06.357Z,100224.71
2018-12-13T15:53:35.431Z,100229.48
2018-12-13T15:56:04.523Z,100232.84
2018-12-13T15:58:33.644Z,100232.32
2018-12-13T16:01:03.839Z,100231.77
2018-12-13T16:03:32.912Z,100234.86
2018-12-13T16:06:02.097Z,100226.28
2018-12-13T16:08:31.180Z,100230.02
2018-12-13T16:11:00.568Z,100228.98
2018-12-13T16:13:29.655Z,100226.98
2018-12-13T16:15:58.771Z,100228.54
2018-12-13T16:18:27.895Z,100229.15
2018-12-13T16:20:56.977Z,100223.79
2018-12-13T16:23:26.285Z,100223.86
2018-12-13T16:25:55.357Z,100232.75
2018-12-13T16:28:24.464Z,100224.50
2018-12-13T16:30:53.588Z,100230.81
2018-12-13T16:33:22.672Z,100226.57
2018-12-13T16:35:51.796Z,100234.51
2018-12-13T16:38:20.984Z,100232.91
2018-12-13T16:40:50.141Z,100230.84
2018-12-13T16:43:19.244Z,100233.55
2018-12-13T16:45:48.338Z,100234.13
2018-12-13T16:48:17.489Z,100224.28
2018-12-13T16:50:46.614Z,100228.05
2018-12-13T16:53:15.766Z,100229.17
2018-12-13T16:55:44.873Z,100230.60
2018-12-13T16:58:14.235Z,100235.61
2018-12-13T17:00:43.344Z,100226.73
2018-12-13T17:03:23.141Z,100230.42
2018-12-13T17:05:52.245Z,100231.00
2018-12-13T17:08:21.365Z,100226.14
2018-12-13T17:10:50.449Z,100228.52
2018-12-13T17:13:19.672Z,100230.54
2018-12-13T17:15:48.806Z,100229.61
2018-12-13T17:18:17.993Z,100228.86
2018-12-13T17:20:48.099Z,100231.73
2018-12-13T17:23:17.214Z,100232.03
2018-12-13T17:25:46.317Z,100237.70
2018-12-13T17:28:15.466Z,100237.55
2018-12-13T17:30:44.594Z,100241.66
2018-12-13T17:33:13.838Z,100245.81
2018-12-13T17:35:43.354Z,100238.97
2018-12-13T17:38:13.305Z,100232.26
2018-12-13T17:40:42.934Z,100230.31
2018-12-13T17:43:12.035Z,100232.96
2018-12-13T17:45:41.161Z,100236.08
2018-12-13T17:48:11.228Z,100233.44
2018-12-13T17:50:40.326Z,100232.69
2018-12-13T17:53:09.433Z,100227.35
2018-12-13T17:55:39.238Z,100229.39
2018-12-13T17:58:08.636Z,100235.43
2018-12-13T18:00:37.744Z,100237.50
2018-12-13T18:03:07.772Z,100234.16
2018-12-13T18:05:37.782Z,100232.96
2018-12-13T18:08:08.071Z,100218.72
2018-12-13T18:10:37.218Z,100216.41
2018-12-13T18:13:06.525Z,100214.80
2018-12-13T18:15:36.470Z,100215.66
2018-12-13T18:18:06.241Z,100207.52
2018-12-13T18:20:35.368Z,100211.48
2018-12-13T18:23:04.481Z,100215.70
2018-12-13T18:25:33.608Z,100221.91
2018-12-13T18:28:02.712Z,100211.44
2018-12-13T18:30:31.839Z,100208.41
2018-12-13T18:33:00.987Z,100197.94
2018-12-13T18:35:31.087Z,100192.17
2018-12-13T18:38:00.229Z,100198.22
2018-12-13T18:40:35.497Z,100195.89
2018-12-13T18:43:00.862Z,100191.34
2018-12-13T18:45:34.509Z,100194.36
2018-12-13T18:48:04.158Z,100197.58
2018-12-13T18:50:33.289Z,100196.16
2018-12-13T18:53:03.085Z,100206.61
2018-12-13T18:55:32.870Z,100203.81
2018-12-13T18:58:02.008Z,100206.14
2018-12-13T19:00:31.662Z,100211.36
2018-12-13T19:03:01.012Z,100216.41
2018-12-13T19:05:30.278Z,100212.06
2018-12-13T19:07:59.386Z,100208.86
2018-12-13T19:10:28.615Z,100206.22
2018-12-13T19:12:57.729Z,100214.33
2018-12-13T19:15:26.879Z,100215.08
2018-12-13T19:17:57.413Z,100215.03
2018-12-13T19:20:28.042Z,100219.88
2018-12-13T19:22:57.256Z,100213.83
2018-12-13T19:25:27.807Z,100221.80
2018-12-13T19:27:57.168Z,100222.92
2018-12-13T19:30:26.585Z,100218.58
2018-12-13T19:32:55.706Z,100222.45
2018-12-13T19:35:25.306Z,100219.95
2018-12-13T19:37:54.441Z,100215.41
2018-12-13T19:40:24.690Z,100217.41
2018-12-13T19:42:55.294Z,100207.95
2018-12-13T19:45:24.489Z,100211.68
2018-12-13T19:47:53.664Z,100209.41
2018-12-13T19:50:23.395Z,100205.34
2018-12-13T19:52:52.509Z,100212.02
2018-12-13T19:55:21.611Z,100207.30
2018-12-13T19:57:50.746Z,100205.54
2018-12-13T20:00:20.752Z,100200.89
2018-12-13T20:02:50.126Z,100197.53
2018-12-13T20:05:19.257Z,100198.17
2018-12-13T20:07:48.409Z,100197.48
2018-12-13T20:10:17.912Z,100196.54
2018-12-13T20:12:48.114Z,100193.52
2018-12-13T20:15:23.959Z,100194.09
2018-12-13T20:17:49.372Z,100199.13
2018-12-13T20:20:19.239Z,100204.28
2018-12-13T20:22:48.337Z,100216.33
2018-12-13T20:25:17.896Z,100219.14
2018-12-13T20:27:47.048Z,100220.16
2018-12-13T20:30:16.356Z,100224.02
2018-12-13T20:32:46.796Z,100216.31
2018-12-13T20:35:16.192Z,100208.28
2018-12-13T20:37:46.200Z,100199.80
2018-12-13T20:40:15.958Z,100202.34
2018-12-13T20:42:45.496Z,100202.03
2018-12-13T20:45:14.663Z,100192.45
2018-12-13T20:47:44.193Z,100201.44
2018-12-13T20:50:14.188Z,100205.06
2018-12-13T20:52:43.395Z,100198.62
2018-12-13T20:55:12.609Z,100193.13
2018-12-13T20:57:42.953Z,100193.33
2018-12-13T21:00:12.670Z,100191.63
2018-12-13T21:02:41.790Z,100194.86
2018-12-13T21:05:11.033Z,100197.13
2018-12-13T21:07:40.160Z,100194.14
2018-12-13T21:10:11.018Z,100201.44
2018-12-13T21:12:40.156Z,100200.08
2018-12-13T21:15:09.812Z,100210.59
2018-12-13T21:17:39.073Z,100215.60
2018-12-13T21:20:08.382Z,100220.95
2018-12-13T21:22:37.499Z,100223.92
2018-12-13T21:25:06.676Z,100216.72
2018-12-13T21:27:35.806Z,100229.00
2018-12-13T21:30:05.353Z,100233.53
2018-12-13T21:32:34.454Z,100231.84
2018-12-13T21:35:03.598Z,100233.95
2018-12-13T21:37:32.686Z,100228.12
2018-12-13T21:40:01.799Z,100230.34
2018-12-13T21:42:30.913Z,100222.70
2018-12-13T21:45:00.000Z,100220.70
2018-12-13T21:47:29.103Z,100216.05
2018-12-13T21:49:58.236Z,100221.56
2018-12-13T21:52:27.330Z,100215.89
2018-12-13T21:54:56.434Z,100218.16
2018-12-13T21:57:25.798Z,100219.30
2018-12-13T21:59:54.921Z,100216.13
2018-12-13T22:02:24.018Z,100217.73
2018-12-13T22:04:53.160Z,100218.59
2018-12-13T22:07:22.281Z,100222.12
2018-12-13T22:09:51.388Z,100226.99
2018-12-13T22:12:20.521Z,100226.99
2018-12-13T22:14:49.682Z,100222.65
2018-12-13T22:17:18.812Z,100221.13
2018-12-13T22:19:47.951Z,100212.35
2018-12-13T22:22:17.077Z,100211.08
2018-12-13T22:24:46.206Z,100209.44
2018-12-13T22:27:15.342Z,100206.02
2018-12-13T22:29:44.474Z,100203.70
2018-12-13T22:32:13.635Z,100203.03
2018-12-13T22:34:43.045Z,100199.91
2018-12-13T22:37:12.538Z,100201.61
2018-12-13T22:39:41.670Z,100198.78
2018-12-13T22:42:10.808Z,100199.91
2018-12-13T22:44:39.932Z,100198.59
2018-12-13T22:47:09.057Z,100191.38
2018-12-13T22:49:38.213Z,100191.84
2018-12-13T22:52:07.337Z,100190.85
2018-12-13T22:54:36.473Z,100186.00
2018-12-13T22:57:05.619Z,100181.75
2018-12-13T22:59:34.802Z,100189.89
2018-12-13T23:02:03.925Z,100197.91
2018-12-13T23:04:33.083Z,100188.66
2018-12-13T23:07:02.245Z,100189.84
2018-12-13T23:09:31.435Z,100172.19
2018-12-13T23:12:00.574Z,100174.08
2018-12-13T23:14:29.749Z,100188.23
2018-12-13T23:19:42.616Z,100180.45
2018-12-13T23:22:11.755Z,100177.64
2018-12-13T23:24:40.913Z,100175.74
2018-12-13T23:27:10.048Z,100182.73
2018-12-13T23:29:39.177Z,100193.15
2018-12-13T23:32:08.321Z,100188.82
2018-12-13T23:34:37.452Z,100193.95
2018-12-13T23:37:06.609Z,100203.47
2018-12-13T23:39:35.744Z,100211.02
2018-12-13T23:42:04.899Z,100218.41
2018-12-13T23:44:34.041Z,100215.42
2018-12-13T23:47:03.185Z,100221.11
2018-12-13T23:49:32.317Z,100225.66
2018-12-13T23:52:01.465Z,100219.61
2018-12-13T23:54:30.608Z,100225.29
2018-12-13T23:56:59.753Z,100231.70
2018-12-13T23:59:28.878Z,100234.19
